sensor_id;sensor_type;location;lat;lon;timestamp;pressure;altitude;pressure_sealevel;temperature;humidity
64933;BME280;51446;53.850;10.662;2023-02-23T00:00:18;101166.22;;;6.14;100.00
64933;BME280;51446;53.850;10.662;2023-02-23T00:02:52;101161.06;;;6.15;100.00
64933;BME280;51446;53.850;10.662;2023-02-23T00:05:20;101162.00;;;6.17;100.00
64933;BME280;51446;53.850;10.662;2023-02-23T00:07:45;101162.56;;;6.31;100.00
64933;BME280;51446;53.850;10.662;2023-02-23T00:10:13;101159.69;;;6.25;100.00
64933;BME280;51446;53.850;10.662;2023-02-23T00:12:42;101162.88;;;6.18;100.00
64933;BME280;51446;53.850;10.662;2023-02-23T00:15:09;101164.66;;;6.19;100.00
64933;BME280;51446;53.850;10.662;2023-02-23T00:17:34;101160.47;;;6.22;100.00
64933;BME280;51446;53.850;10.662;2023-02-23T00:20:07;101165.13;;;6.08;100.00
64933;BME280;51446;53.850;10.662;2023-02-23T00:22:38;101162.41;;;6.05;100.00
64933;BME280;51446;53.850;10.662;2023-02-23T00:25:05;101160.44;;;6.00;100.00
64933;BME280;51446;53.850;10.662;2023-02-23T00:27:34;101159.69;;;6.02;100.00
64933;BME280;51446;53.850;10.662;2023-02-23T00:30:00;101153.69;;;6.05;100.00
64933;BME280;51446;53.850;10.662;2023-02-23T00:32:25;101154.34;;;5.99;100.00
64933;BME280;51446;53.850;10.662;2023-02-23T00:34:50;101152.16;;;6.10;100.00
64933;BME280;51446;53.850;10.662;2023-02-23T00:37:17;101152.94;;;6.07;100.00
64933;BME280;51446;53.850;10.662;2023-02-23T00:39:42;101151.56;;;5.96;100.00
64933;BME280;51446;53.850;10.662;2023-02-23T00:42:08;101154.59;;;6.05;100.00
64933;BME280;51446;53.850;10.662;2023-02-23T00:44:34;101151.66;;;5.98;100.00
64933;BME280;51446;53.850;10.662;2023-02-23T00:47:00;101146.97;;;6.10;100.00
64933;BME280;51446;53.850;10.662;2023-02-23T00:49:25;101150.19;;;6.04;100.00
64933;BME280;51446;53.850;10.662;2023-02-23T00:51:51;101148.09;;;5.96;100.00
64933;BME280;51446;53.850;10.662;2023-02-23T00:54:19;101147.09;;;5.92;100.00
64933;BME280;51446;53.850;10.662;2023-02-23T00:56:45;101140.91;;;5.90;100.00
64933;BME280;51446;53.850;10.662;2023-02-23T00:59:12;101146.34;;;5.96;100.00
64933;BME280;51446;53.850;10.662;2023-02-23T01:01:38;101144.41;;;5.90;100.00
64933;BME280;51446;53.850;10.662;2023-02-23T01:04:06;101146.44;;;5.98;100.00
64933;BME280;51446;53.850;10.662;2023-02-23T01:06:31;101142.16;;;5.98;100.00
64933;BME280;51446;53.850;10.662;2023-02-23T01:08:57;101140.22;;;5.94;100.00
64933;BME280;51446;53.850;10.662;2023-02-23T01:11:25;101145.75;;;6.02;100.00
64933;BME280;51446;53.850;10.662;2023-02-23T01:13:56;101148.03;;;5.94;100.00
64933;BME280;51446;53.850;10.662;2023-02-23T01:16:24;101141.88;;;5.92;100.00
64933;BME280;51446;53.850;10.662;2023-02-23T01:18:52;101152.78;;;5.83;100.00
64933;BME280;51446;53.850;10.662;2023-02-23T01:21:21;101145.75;;;5.81;100.00
64933;BME280;51446;53.850;10.662;2023-02-23T01:23:48;101148.94;;;5.73;100.00
64933;BME280;51446;53.850;10.662;2023-02-23T01:26:19;101148.09;;;5.74;100.00
64933;BME280;51446;53.850;10.662;2023-02-23T01:28:52;101142.94;;;5.76;100.00
64933;BME280;51446;53.850;10.662;2023-02-23T01:31:22;101149.41;;;5.86;100.00
64933;BME280;51446;53.850;10.662;2023-02-23T01:33:47;101144.91;;;5.82;100.00
64933;BME280;51446;53.850;10.662;2023-02-23T01:36:16;101143.09;;;6.00;100.00
64933;BME280;51446;53.850;10.662;2023-02-23T01:38:42;101144.66;;;5.97;100.00
64933;BME280;51446;53.850;10.662;2023-02-23T01:41:08;101144.84;;;5.80;100.00
64933;BME280;51446;53.850;10.662;2023-02-23T01:43:33;101138.59;;;5.75;100.00
64933;BME280;51446;53.850;10.662;2023-02-23T01:45:58;101141.13;;;5.73;100.00
64933;BME280;51446;53.850;10.662;2023-02-23T01:48:27;101132.28;;;5.70;100.00
64933;BME280;51446;53.850;10.662;2023-02-23T01:51:00;101137.13;;;5.61;100.00
64933;BME280;51446;53.850;10.662;2023-02-23T01:53:31;101138.69;;;5.57;100.00
64933;BME280;51446;53.850;10.662;2023-02-23T01:56:04;101139.78;;;5.62;100.00
64933;BME280;51446;53.850;10.662;2023-02-23T01:58:35;101126.25;;;5.50;100.00
64933;BME280;51446;53.850;10.662;2023-02-23T02:01:01;101131.78;;;5.58;100.00
64933;BME280;51446;53.850;10.662;2023-02-23T02:03:32;101136.38;;;5.63;100.00
64933;BME280;51446;53.850;10.662;2023-02-23T02:06:00;101127.91;;;5.69;100.00
64933;BME280;51446;53.850;10.662;2023-02-23T02:08:29;101127.47;;;5.79;100.00
64933;BME280;51446;53.850;10.662;2023-02-23T02:10:55;101134.44;;;5.80;100.00
64933;BME280;51446;53.850;10.662;2023-02-23T02:13:25;101131.22;;;5.65;100.00
64933;BME280;51446;53.850;10.662;2023-02-23T02:16:19;101129.06;;;5.76;100.00
64933;BME280;51446;53.850;10.662;2023-02-23T02:19:04;101125.81;;;5.81;100.00
64933;BME280;51446;53.850;10.662;2023-02-23T02:24:50;101112.81;;;5.60;100.00
64933;BME280;51446;53.850;10.662;2023-02-23T02:27:33;101120.38;;;5.75;100.00
64933;BME280;51446;53.850;10.662;2023-02-23T02:41:34;101108.69;;;5.65;100.00
64933;BME280;51446;53.850;10.662;2023-02-23T02:44:10;101105.75;;;5.79;100.00
64933;BME280;51446;53.850;10.662;2023-02-23T02:46:42;101107.25;;;5.72;100.00
64933;BME280;51446;53.850;10.662;2023-02-23T02:49:22;101114.75;;;5.87;100.00
64933;BME280;51446;53.850;10.662;2023-02-23T02:54:37;101105.81;;;5.80;100.00
64933;BME280;51446;53.850;10.662;2023-02-23T02:57:04;101104.25;;;5.84;100.00
64933;BME280;51446;53.850;10.662;2023-02-23T02:59:41;101100.03;;;5.87;100.00
64933;BME280;51446;53.850;10.662;2023-02-23T03:02:26;101098.34;;;5.88;100.00
64933;BME280;51446;53.850;10.662;2023-02-23T03:05:15;101094.69;;;5.84;100.00
64933;BME280;51446;53.850;10.662;2023-02-23T03:11:17;101096.94;;;5.75;100.00
64933;BME280;51446;53.850;10.662;2023-02-23T03:14:13;101099.38;;;5.70;100.00
64933;BME280;51446;53.850;10.662;2023-02-23T03:17:14;101100.94;;;5.88;100.00
64933;BME280;51446;53.850;10.662;2023-02-23T03:20:21;101094.53;;;5.80;100.00
64933;BME280;51446;53.850;10.662;2023-02-23T03:32:18;101109.69;;;5.90;100.00
64933;BME280;51446;53.850;10.662;2023-02-23T03:35:26;101110.25;;;5.83;100.00
64933;BME280;51446;53.850;10.662;2023-02-23T03:41:23;101101.81;;;5.88;100.00
64933;BME280;51446;53.850;10.662;2023-02-23T03:44:14;101103.94;;;5.97;100.00
64933;BME280;51446;53.850;10.662;2023-02-23T03:47:00;101107.41;;;5.98;100.00
64933;BME280;51446;53.850;10.662;2023-02-23T03:49:48;101102.56;;;5.86;100.00
64933;BME280;51446;53.850;10.662;2023-02-23T03:52:38;101103.84;;;5.96;100.00
64933;BME280;51446;53.850;10.662;2023-02-23T03:55:29;101103.97;;;5.99;100.00
64933;BME280;51446;53.850;10.662;2023-02-23T03:58:18;101108.03;;;5.92;100.00
64933;BME280;51446;53.850;10.662;2023-02-23T04:01:06;101113.75;;;6.04;100.00
64933;BME280;51446;53.850;10.662;2023-02-23T04:03:53;101107.63;;;6.02;100.00
64933;BME280;51446;53.850;10.662;2023-02-23T04:06:42;101110.44;;;6.08;100.00
64933;BME280;51446;53.850;10.662;2023-02-23T04:09:27;101111.16;;;6.04;100.00
64933;BME280;51446;53.850;10.662;2023-02-23T04:12:16;101105.81;;;6.01;100.00
64933;BME280;51446;53.850;10.662;2023-02-23T04:15:14;101101.88;;;6.11;100.00
64933;BME280;51446;53.850;10.662;2023-02-23T04:17:42;101095.66;;;6.07;100.00
64933;BME280;51446;53.850;10.662;2023-02-23T04:20:11;101110.44;;;6.08;100.00
64933;BME280;51446;53.850;10.662;2023-02-23T04:22:37;101103.41;;;6.06;100.00
64933;BME280;51446;53.850;10.662;2023-02-23T04:25:03;101099.38;;;6.14;100.00
64933;BME280;51446;53.850;10.662;2023-02-23T04:27:30;101101.88;;;6.11;100.00
64933;BME280;51446;53.850;10.662;2023-02-23T04:29:55;101107.66;;;6.04;100.00
64933;BME280;51446;53.850;10.662;2023-02-23T04:32:20;101102.06;;;6.16;100.00
64933;BME280;51446;53.850;10.662;2023-02-23T04:34:46;101105.88;;;6.03;100.00
64933;BME280;51446;53.850;10.662;2023-02-23T04:37:12;101103.78;;;5.94;100.00
64933;BME280;51446;53.850;10.662;2023-02-23T04:39:37;101100.56;;;6.00;100.00
64933;BME280;51446;53.850;10.662;2023-02-23T04:42:03;101099.81;;;6.02;100.00
64933;BME280;51446;53.850;10.662;2023-02-23T04:44:28;101098.91;;;6.02;100.00
64933;BME280;51446;53.850;10.662;2023-02-23T04:46:55;101093.63;;;6.00;100.00
64933;BME280;51446;53.850;10.662;2023-02-23T04:49:20;101090.69;;;5.93;100.00
64933;BME280;51446;53.850;10.662;2023-02-23T04:51:45;101092.44;;;5.92;100.00
64933;BME280;51446;53.850;10.662;2023-02-23T04:54:11;101097.09;;;5.99;100.00
64933;BME280;51446;53.850;10.662;2023-02-23T04:56:36;101099.22;;;5.88;100.00
64933;BME280;51446;53.850;10.662;2023-02-23T04:59:03;101084.25;;;6.04;100.00
64933;BME280;51446;53.850;10.662;2023-02-23T05:01:28;101088.41;;;6.00;100.00
64933;BME280;51446;53.850;10.662;2023-02-23T05:03:54;101085.00;;;6.01;100.00
64933;BME280;51446;53.850;10.662;2023-02-23T05:06:20;101084.41;;;6.08;100.00
64933;BME280;51446;53.850;10.662;2023-02-23T05:08:45;101083.72;;;6.13;100.00
64933;BME280;51446;53.850;10.662;2023-02-23T05:11:11;101086.13;;;6.08;100.00
64933;BME280;51446;53.850;10.662;2023-02-23T05:13:37;101085.34;;;6.11;100.00
64933;BME280;51446;53.850;10.662;2023-02-23T05:16:03;101090.09;;;5.98;100.00
64933;BME280;51446;53.850;10.662;2023-02-23T05:18:28;101084.78;;;5.97;100.00
64933;BME280;51446;53.850;10.662;2023-02-23T05:21:01;101081.81;;;5.87;100.00
64933;BME280;51446;53.850;10.662;2023-02-23T05:23:26;101083.16;;;5.99;100.00
64933;BME280;51446;53.850;10.662;2023-02-23T05:25:51;101094.13;;;5.91;100.00
64933;BME280;51446;53.850;10.662;2023-02-23T05:28:17;101093.06;;;5.86;100.00
64933;BME280;51446;53.850;10.662;2023-02-23T05:30:42;101092.22;;;5.87;100.00
64933;BME280;51446;53.850;10.662;2023-02-23T05:33:07;101092.44;;;5.92;100.00
64933;BME280;51446;53.850;10.662;2023-02-23T05:35:32;101096.59;;;5.88;100.00
64933;BME280;51446;53.850;10.662;2023-02-23T05:37:58;101083.25;;;5.79;100.00
64933;BME280;51446;53.850;10.662;2023-02-23T05:40:23;101088.56;;;5.82;100.00
64933;BME280;51446;53.850;10.662;2023-02-23T05:42:48;101094.88;;;5.89;100.00
64933;BME280;51446;53.850;10.662;2023-02-23T05:45:13;101090.09;;;5.98;100.00
64933;BME280;51446;53.850;10.662;2023-02-23T05:47:39;101095.16;;;5.95;100.00
64933;BME280;51446;53.850;10.662;2023-02-23T05:50:09;101094.75;;;5.86;100.00
64933;BME280;51446;53.850;10.662;2023-02-23T05:52:39;101082.66;;;5.86;100.00
64933;BME280;51446;53.850;10.662;2023-02-23T05:55:06;101082.44;;;5.82;100.00
64933;BME280;51446;53.850;10.662;2023-02-23T05:57:31;101090.00;;;5.97;100.00
64933;BME280;51446;53.850;10.662;2023-02-23T05:59:56;101082.78;;;5.89;100.00
64933;BME280;51446;53.850;10.662;2023-02-23T06:02:22;101090.53;;;5.88;100.00
64933;BME280;51446;53.850;10.662;2023-02-23T06:04:47;101087.34;;;5.95;100.00
64933;BME280;51446;53.850;10.662;2023-02-23T06:07:12;101090.16;;;6.00;100.00
64933;BME280;51446;53.850;10.662;2023-02-23T06:09:38;101091.56;;;5.93;100.00
64933;BME280;51446;53.850;10.662;2023-02-23T06:12:03;101081.75;;;5.86;100.00
64933;BME280;51446;53.850;10.662;2023-02-23T06:14:29;101086.72;;;5.80;100.00
64933;BME280;51446;53.850;10.662;2023-02-23T06:16:54;101091.09;;;5.81;100.00
64933;BME280;51446;53.850;10.662;2023-02-23T06:19:19;101086.03;;;5.84;100.00
64933;BME280;51446;53.850;10.662;2023-02-23T06:21:45;101089.09;;;5.96;100.00
64933;BME280;51446;53.850;10.662;2023-02-23T06:24:10;101100.63;;;6.01;100.00
64933;BME280;51446;53.850;10.662;2023-02-23T06:26:36;101095.53;;;5.83;100.00
64933;BME280;51446;53.850;10.662;2023-02-23T06:29:01;101097.63;;;5.92;100.00
64933;BME280;51446;53.850;10.662;2023-02-23T06:31:26;101096.72;;;5.91;100.00
64933;BME280;51446;53.850;10.662;2023-02-23T06:33:52;101099.69;;;5.99;100.00
64933;BME280;51446;53.850;10.662;2023-02-23T06:36:17;101109.91;;;5.96;100.00
64933;BME280;51446;53.850;10.662;2023-02-23T06:38:42;101105.06;;;5.83;100.00
64933;BME280;51446;53.850;10.662;2023-02-23T06:41:10;101109.19;;;5.78;100.00
64933;BME280;51446;53.850;10.662;2023-02-23T06:43:35;101119.38;;;5.94;100.00
64933;BME280;51446;53.850;10.662;2023-02-23T06:46:01;101117.19;;;5.82;100.00
64933;BME280;51446;53.850;10.662;2023-02-23T06:48:26;101120.66;;;5.83;100.00
64933;BME280;51446;53.850;10.662;2023-02-23T06:50:51;101123.22;;;5.81;100.00
64933;BME280;51446;53.850;10.662;2023-02-23T06:53:17;101123.94;;;5.98;100.00
64933;BME280;51446;53.850;10.662;2023-02-23T06:55:44;101125.34;;;5.91;100.00
64933;BME280;51446;53.850;10.662;2023-02-23T06:58:09;101118.25;;;5.87;100.00
64933;BME280;51446;53.850;10.662;2023-02-23T07:00:34;101124.41;;;5.89;100.00
64933;BME280;51446;53.850;10.662;2023-02-23T07:03:00;101120.50;;;5.99;100.00
64933;BME280;51446;53.850;10.662;2023-02-23T07:05:25;101131.09;;;6.04;100.00
64933;BME280;51446;53.850;10.662;2023-02-23T07:07:51;101129.31;;;6.03;100.00
64933;BME280;51446;53.850;10.662;2023-02-23T07:10:17;101131.84;;;6.01;100.00
64933;BME280;51446;53.850;10.662;2023-02-23T07:12:42;101129.44;;;6.06;100.00
64933;BME280;51446;53.850;10.662;2023-02-23T07:15:08;101132.16;;;6.09;100.00
64933;BME280;51446;53.850;10.662;2023-02-23T07:17:34;101140.88;;;6.10;100.00
64933;BME280;51446;53.850;10.662;2023-02-23T07:19:59;101149.03;;;6.19;100.00
64933;BME280;51446;53.850;10.662;2023-02-23T07:22:24;101145.72;;;6.23;100.00
64933;BME280;51446;53.850;10.662;2023-02-23T07:24:53;101146.03;;;6.31;100.00
64933;BME280;51446;53.850;10.662;2023-02-23T07:27:18;101150.25;;;6.27;100.00
64933;BME280;51446;53.850;10.662;2023-02-23T07:29:43;101150.41;;;6.32;100.00
64933;BME280;51446;53.850;10.662;2023-02-23T07:32:09;101152.91;;;6.29;100.00
64933;BME280;51446;53.850;10.662;2023-02-23T07:34:34;101153.59;;;6.24;100.00
64933;BME280;51446;53.850;10.662;2023-02-23T07:37:01;101150.28;;;6.29;100.00
64933;BME280;51446;53.850;10.662;2023-02-23T07:39:26;101155.78;;;6.36;100.00
64933;BME280;51446;53.850;10.662;2023-02-23T07:41:51;101151.28;;;6.32;100.00
64933;BME280;51446;53.850;10.662;2023-02-23T07:44:17;101155.69;;;6.33;100.00
64933;BME280;51446;53.850;10.662;2023-02-23T07:46:42;101145.31;;;6.35;100.00
64933;BME280;51446;53.850;10.662;2023-02-23T07:49:08;101153.63;;;6.47;100.00
64933;BME280;51446;53.850;10.662;2023-02-23T07:51:33;101154.38;;;6.45;100.00
64933;BME280;51446;53.850;10.662;2023-02-23T07:54:03;101156.34;;;6.50;100.00
64933;BME280;51446;53.850;10.662;2023-02-23T07:56:29;101154.50;;;6.48;100.00
64933;BME280;51446;53.850;10.662;2023-02-23T07:58:54;101152.91;;;6.51;100.00
64933;BME280;51446;53.850;10.662;2023-02-23T08:01:19;101156.81;;;6.63;100.00
64933;BME280;51446;53.850;10.662;2023-02-23T08:03:44;101152.59;;;6.66;100.00
64933;BME280;51446;53.850;10.662;2023-02-23T08:06:14;101153.53;;;6.68;100.00
64933;BME280;51446;53.850;10.662;2023-02-23T08:08:39;101156.81;;;6.63;100.00
64933;BME280;51446;53.850;10.662;2023-02-23T08:11:05;101159.59;;;6.67;100.00
64933;BME280;51446;53.850;10.662;2023-02-23T08:13:30;101159.72;;;6.70;100.00
64933;BME280;51446;53.850;10.662;2023-02-23T08:15:56;101151.66;;;6.64;100.00
64933;BME280;51446;53.850;10.662;2023-02-23T08:18:21;101163.44;;;6.77;100.00
64933;BME280;51446;53.850;10.662;2023-02-23T08:20:47;101164.03;;;6.70;100.00
64933;BME280;51446;53.850;10.662;2023-02-23T08:23:12;101171.00;;;6.71;100.00
64933;BME280;51446;53.850;10.662;2023-02-23T08:25:37;101168.34;;;6.69;100.00
64933;BME280;51446;53.850;10.662;2023-02-23T08:28:03;101168.47;;;6.72;100.00
64933;BME280;51446;53.850;10.662;2023-02-23T08:30:31;101168.25;;;6.66;100.00
64933;BME280;51446;53.850;10.662;2023-02-23T08:32:57;101170.19;;;6.72;100.00
64933;BME280;51446;53.850;10.662;2023-02-23T08:35:22;101168.94;;;6.85;100.00
64933;BME280;51446;53.850;10.662;2023-02-23T08:37:47;101173.06;;;6.80;100.00
64933;BME280;51446;53.850;10.662;2023-02-23T08:40:13;101175.88;;;6.62;100.00
64933;BME280;51446;53.850;10.662;2023-02-23T08:42:40;101174.22;;;6.64;100.00
64933;BME280;51446;53.850;10.662;2023-02-23T08:45:06;101175.41;;;6.72;100.00
64933;BME280;51446;53.850;10.662;2023-02-23T08:47:32;101174.59;;;6.73;100.00
64933;BME280;51446;53.850;10.662;2023-02-23T08:49:58;101170.53;;;6.81;100.00
64933;BME280;51446;53.850;10.662;2023-02-23T08:52:24;101166.06;;;6.77;100.00
64933;BME280;51446;53.850;10.662;2023-02-23T08:54:49;101154.41;;;6.91;100.00
64933;BME280;51446;53.850;10.662;2023-02-23T08:57:14;101163.78;;;7.10;100.00
64933;BME280;51446;53.850;10.662;2023-02-23T08:59:40;101163.78;;;7.10;100.00
64933;BME280;51446;53.850;10.662;2023-02-23T09:02:06;101162.78;;;7.07;100.00
64933;BME280;51446;53.850;10.662;2023-02-23T09:04:35;101165.69;;;7.15;100.00
64933;BME280;51446;53.850;10.662;2023-02-23T09:07:01;101159.81;;;7.20;100.00
64933;BME280;51446;53.850;10.662;2023-02-23T09:09:26;101162.47;;;7.22;100.00
64933;BME280;51446;53.850;10.662;2023-02-23T09:11:52;101158.19;;;7.24;100.00
64933;BME280;51446;53.850;10.662;2023-02-23T09:14:17;101164.94;;;7.19;100.00
64933;BME280;51446;53.850;10.662;2023-02-23T09:16:43;101167.13;;;7.31;100.00
64933;BME280;51446;53.850;10.662;2023-02-23T09:19:09;101154.38;;;7.40;100.00
64933;BME280;51446;53.850;10.662;2023-02-23T09:21:34;101158.88;;;7.44;100.00
64933;BME280;51446;53.850;10.662;2023-02-23T09:24:00;101163.22;;;7.43;100.00
64933;BME280;51446;53.850;10.662;2023-02-23T09:26:25;101167.59;;;7.44;100.00
64933;BME280;51446;53.850;10.662;2023-02-23T09:28:53;101161.78;;;7.53;100.00
64933;BME280;51446;53.850;10.662;2023-02-23T09:31:21;101152.22;;;7.52;100.00
64933;BME280;51446;53.850;10.662;2023-02-23T09:33:47;101160.19;;;7.57;100.00
64933;BME280;51446;53.850;10.662;2023-02-23T09:36:15;101163.72;;;7.59;100.00
64933;BME280;51446;53.850;10.662;2023-02-23T09:38:45;101163.56;;;7.54;100.00
64933;BME280;51446;53.850;10.662;2023-02-23T09:41:36;101163.66;;;7.57;100.00
64933;BME280;51446;53.850;10.662;2023-02-23T09:44:20;101164.78;;;7.64;100.00
64933;BME280;51446;53.850;10.662;2023-02-23T09:47:15;101159.72;;;7.69;100.00
64933;BME280;51446;53.850;10.662;2023-02-23T09:49:44;101166.75;;;7.71;100.00
64933;BME280;51446;53.850;10.662;2023-02-23T09:52:17;101164.63;;;7.59;100.00
64933;BME280;51446;53.850;10.662;2023-02-23T09:54:43;101170.53;;;7.54;100.00
64933;BME280;51446;53.850;10.662;2023-02-23T09:57:13;101168.06;;;7.58;100.00
64933;BME280;51446;53.850;10.662;2023-02-23T09:59:40;101178.66;;;7.63;100.00
64933;BME280;51446;53.850;10.662;2023-02-23T10:05:04;101181.00;;;7.55;100.00
64933;BME280;51446;53.850;10.662;2023-02-23T10:07:55;101182.63;;;7.52;100.00
64933;BME280;51446;53.850;10.662;2023-02-23T10:10:35;101170.53;;;7.54;100.00
64933;BME280;51446;53.850;10.662;2023-02-23T10:13:17;101181.16;;;7.60;100.00
64933;BME280;51446;53.850;10.662;2023-02-23T10:15:51;101172.19;;;7.52;100.00
64933;BME280;51446;53.850;10.662;2023-02-23T10:18:36;101182.97;;;7.37;100.00
64933;BME280;51446;53.850;10.662;2023-02-23T10:21:45;101175.91;;;7.34;100.00
64933;BME280;51446;53.850;10.662;2023-02-23T10:24:17;101182.09;;;7.36;100.00
64933;BME280;51446;53.850;10.662;2023-02-23T10:26:50;101184.75;;;7.38;100.00
64933;BME280;51446;53.850;10.662;2023-02-23T10:29:22;101190.34;;;7.49;100.00
64933;BME280;51446;53.850;10.662;2023-02-23T10:31:55;101182.81;;;7.56;100.00
64933;BME280;51446;53.850;10.662;2023-02-23T10:34:22;101185.28;;;7.53;100.00
64933;BME280;51446;53.850;10.662;2023-02-23T10:36:56;101187.72;;;7.49;100.00
64933;BME280;51446;53.850;10.662;2023-02-23T10:39:22;101182.84;;;7.58;100.00
64933;BME280;51446;53.850;10.662;2023-02-23T10:41:47;101187.53;;;7.68;100.00
64933;BME280;51446;53.850;10.662;2023-02-23T10:44:23;101188.84;;;7.81;100.00
64933;BME280;51446;53.850;10.662;2023-02-23T10:46:54;101193.03;;;7.76;100.00
64933;BME280;51446;53.850;10.662;2023-02-23T10:49:26;101178.47;;;7.57;100.00
64933;BME280;51446;53.850;10.662;2023-02-23T10:51:54;101193.16;;;7.55;100.00
64933;BME280;51446;53.850;10.662;2023-02-23T10:54:37;101192.59;;;7.38;100.00
64933;BME280;51446;53.850;10.662;2023-02-23T10:57:03;101195.66;;;7.52;100.00
64933;BME280;51446;53.850;10.662;2023-02-23T10:59:30;101206.06;;;7.26;100.00
64933;BME280;51446;53.850;10.662;2023-02-23T11:01:56;101199.91;;;7.24;100.00
64933;BME280;51446;53.850;10.662;2023-02-23T11:04:29;101194.06;;;7.31;100.00
64933;BME280;51446;53.850;10.662;2023-02-23T11:07:25;101201.13;;;7.34;100.00
64933;BME280;51446;53.850;10.662;2023-02-23T11:09:54;101196.84;;;7.11;100.00
64933;BME280;51446;53.850;10.662;2023-02-23T11:12:25;101196.94;;;6.90;100.00
64933;BME280;51446;53.850;10.662;2023-02-23T11:14:56;101186.03;;;7.01;100.00
64933;BME280;51446;53.850;10.662;2023-02-23T11:17:31;101192.78;;;6.95;100.00
64933;BME280;51446;53.850;10.662;2023-02-23T11:19:59;101181.88;;;7.06;100.00
64933;BME280;51446;53.850;10.662;2023-02-23T11:22:30;101181.34;;;7.15;100.00
64933;BME280;51446;53.850;10.662;2023-02-23T11:24:55;101171.28;;;7.25;100.00
64933;BME280;51446;53.850;10.662;2023-02-23T11:27:25;101175.72;;;7.28;100.00
64933;BME280;51446;53.850;10.662;2023-02-23T11:29:53;101170.63;;;7.57;100.00
64933;BME280;51446;53.850;10.662;2023-02-23T11:32:22;101166.56;;;7.65;100.00
64933;BME280;51446;53.850;10.662;2023-02-23T11:37:49;101158.97;;;7.47;100.00
64933;BME280;51446;53.850;10.662;2023-02-23T11:43:07;101152.53;;;7.89;100.00
64933;BME280;51446;53.850;10.662;2023-02-23T11:45:43;101153.38;;;7.62;100.00
64933;BME280;51446;53.850;10.662;2023-02-23T11:48:19;101154.09;;;7.56;100.00
64933;BME280;51446;53.850;10.662;2023-02-23T11:50:47;101152.09;;;7.49;100.00
64933;BME280;51446;53.850;10.662;2023-02-23T11:53:15;101157.16;;;7.44;100.00
64933;BME280;51446;53.850;10.662;2023-02-23T11:55:51;101154.88;;;7.54;100.00
64933;BME280;51446;53.850;10.662;2023-02-23T12:01:09;101152.84;;;7.45;100.00
64933;BME280;51446;53.850;10.662;2023-02-23T12:03:42;101151.28;;;7.26;100.00
64933;BME280;51446;53.850;10.662;2023-02-23T12:06:09;101155.38;;;7.43;100.00
64933;BME280;51446;53.850;10.662;2023-02-23T12:08:49;101153.28;;;7.59;100.00
64933;BME280;51446;53.850;10.662;2023-02-23T12:11:23;101161.97;;;7.58;100.00
64933;BME280;51446;53.850;10.662;2023-02-23T12:13:58;101155.09;;;7.36;100.00
64933;BME280;51446;53.850;10.662;2023-02-23T12:16:28;101150.56;;;7.56;100.00
64933;BME280;51446;53.850;10.662;2023-02-23T12:19:05;101140.59;;;7.44;100.00
64933;BME280;51446;53.850;10.662;2023-02-23T12:26:37;101142.56;;;7.25;100.00
64933;BME280;51446;53.850;10.662;2023-02-23T12:29:41;101148.63;;;7.24;100.00
64933;BME280;51446;53.850;10.662;2023-02-23T12:32:14;101154.13;;;7.08;100.00
64933;BME280;51446;53.850;10.662;2023-02-23T12:35:10;101144.91;;;7.18;100.00
64933;BME280;51446;53.850;10.662;2023-02-23T12:37:38;101152.84;;;7.21;100.00
64933;BME280;51446;53.850;10.662;2023-02-23T12:40:14;101143.19;;;7.18;100.00
64933;BME280;51446;53.850;10.662;2023-02-23T12:42:51;101147.63;;;7.21;100.00
64933;BME280;51446;53.850;10.662;2023-02-23T12:45:56;101147.28;;;7.36;100.00
64933;BME280;51446;53.850;10.662;2023-02-23T12:48:51;101145.78;;;7.18;100.00
64933;BME280;51446;53.850;10.662;2023-02-23T12:51:30;101149.84;;;7.34;100.00
64933;BME280;51446;53.850;10.662;2023-02-23T12:53:59;101150.97;;;7.17;100.00
64933;BME280;51446;53.850;10.662;2023-02-23T13:02:22;101136.44;;;6.99;100.00
64933;BME280;51446;53.850;10.662;2023-02-23T13:05:23;101137.00;;;7.15;100.00
64933;BME280;51446;53.850;10.662;2023-02-23T13:08:21;101136.31;;;7.20;100.00
64933;BME280;51446;53.850;10.662;2023-02-23T13:14:03;101133.78;;;7.22;100.00
64933;BME280;51446;53.850;10.662;2023-02-23T13:16:53;101136.69;;;7.31;100.00
64933;BME280;51446;53.850;10.662;2023-02-23T13:21:57;101130.19;;;7.20;100.00
64933;BME280;51446;53.850;10.662;2023-02-23T13:24:31;101127.47;;;7.41;100.00
64933;BME280;51446;53.850;10.662;2023-02-23T13:27:30;101124.75;;;7.38;100.00
64933;BME280;51446;53.850;10.662;2023-02-23T13:29:58;101116.94;;;7.63;100.00
64933;BME280;51446;53.850;10.662;2023-02-23T13:32:32;101114.31;;;7.63;100.00
64933;BME280;51446;53.850;10.662;2023-02-23T13:35:03;101108.31;;;7.68;100.00
64933;BME280;51446;53.850;10.662;2023-02-23T13:37:35;101118.53;;;7.60;100.00
64933;BME280;51446;53.850;10.662;2023-02-23T13:43:04;101112.19;;;7.79;100.00
64933;BME280;51446;53.850;10.662;2023-02-23T13:46:12;101103.00;;;7.64;100.00
64933;BME280;51446;53.850;10.662;2023-02-23T13:48:55;101096.63;;;7.82;100.00
64933;BME280;51446;53.850;10.662;2023-02-23T13:51:29;101095.94;;;7.88;100.00
64933;BME280;51446;53.850;10.662;2023-02-23T13:56:24;101106.00;;;7.50;100.00
64933;BME280;51446;53.850;10.662;2023-02-23T14:01:20;101107.56;;;7.70;100.00
64933;BME280;51446;53.850;10.662;2023-02-23T14:03:58;101105.47;;;7.60;100.00
64933;BME280;51446;53.850;10.662;2023-02-23T14:06:27;101107.50;;;7.43;100.00
64933;BME280;51446;53.850;10.662;2023-02-23T14:09:08;101113.31;;;7.60;100.00